Argusville, North Dakota
Current Conditions -  °F | °C
As of 2:53 PM on Friday 31 Oct 2014 (Local Time) from KFAR Reporting Station
Clear Clear  
Wind Chill: 32°   Ceiling: Unl
Heat Index: 39°   Visibility: 10mi
Dew Point: 20°   Wind: 10mph
Humidity: 46%   Direction: 190°S
Pressure: 30.5"   Gusts: NA
Location:  47.05°N, 96.93°W
Report Text: KFAR 311953Z 19009KT 10SM CLR 04/M07 A3050 RMK AO2 SLP342 T00391067
Loading
Personal Weather Stations






























Interactive Weather Map
Tropical Storm Tracking
New forecast layout! Learn more

10-Day Weather Forecast

Advertisements
Track Severe Weather on mobile